createdAt,value
2019-04-27T00:03:02.320Z,51.80
2019-04-27T00:07:27.852Z,51.80
2019-04-27T00:11:45.347Z,51.70
2019-04-27T00:16:09.854Z,51.50
2019-04-27T00:20:38.683Z,51.30
2019-04-27T00:24:44.474Z,51.40
2019-04-27T00:28:50.581Z,53.50
2019-04-27T00:32:56.289Z,53.20
2019-04-27T00:37:14.209Z,52.00
2019-04-27T00:41:20.434Z,52.50
2019-04-27T00:45:26.189Z,53.40
2019-04-27T00:49:32.925Z,53.30
2019-04-27T00:53:38.635Z,53.80
2019-04-27T00:58:06.137Z,54.40
2019-04-27T01:02:35.459Z,54.10
2019-04-27T01:06:41.341Z,54.00
2019-04-27T01:10:46.989Z,54.50
2019-04-27T01:14:53.493Z,52.80
2019-04-27T01:18:59.298Z,54.10
2019-04-27T01:23:08.917Z,52.30
2019-04-27T01:27:21.215Z,54.80
2019-04-27T01:31:27.042Z,55.20
2019-04-27T01:35:32.905Z,55.20
2019-04-27T01:39:40.980Z,55.20
2019-04-27T01:43:46.642Z,56.00
2019-04-27T01:47:52.279Z,54.80
2019-04-27T01:51:59.398Z,55.40
2019-04-27T01:56:05.527Z,54.60
2019-04-27T02:00:39.623Z,54.60
2019-04-27T02:04:56.325Z,55.00
2019-04-27T02:09:01.996Z,55.10
2019-04-27T02:13:09.218Z,56.50
2019-04-27T02:17:14.998Z,56.50
2019-04-27T02:21:20.593Z,58.80
2019-04-27T02:25:26.948Z,56.40
2019-04-27T02:29:50.510Z,57.10
2019-04-27T02:34:06.743Z,57.90
2019-04-27T02:38:12.400Z,57.90
2019-04-27T02:42:20.057Z,57.80
2019-04-27T02:46:25.709Z,57.00
2019-04-27T02:50:31.422Z,55.90
2019-04-27T02:54:37.082Z,55.10
2019-04-27T02:58:42.826Z,57.40
2019-04-27T03:02:53.158Z,55.70
2019-04-27T03:07:00.381Z,57.20
2019-04-27T03:11:09.743Z,55.70
2019-04-27T03:15:42.576Z,57.40
2019-04-27T03:19:56.422Z,57.90
2019-04-27T03:24:02.061Z,55.90
2019-04-27T03:28:15.191Z,56.10
2019-04-27T03:32:22.580Z,56.50
2019-04-27T03:36:31.619Z,55.40
2019-04-27T03:40:35.437Z,55.20
2019-04-27T03:44:42.437Z,54.70
2019-04-27T03:48:49.747Z,55.80
2019-04-27T03:53:05.135Z,55.60
2019-04-27T03:57:32.924Z,56.10
2019-04-27T04:01:39.661Z,56.40
2019-04-27T04:05:45.965Z,56.20
2019-04-27T04:09:51.632Z,56.20
2019-04-27T04:14:01.860Z,56.40
2019-04-27T04:18:09.560Z,56.60
2019-04-27T04:22:14.835Z,57.40
2019-04-27T04:26:22.825Z,56.40
2019-04-27T04:30:30.326Z,55.80
2019-04-27T04:34:36.106Z,56.40
2019-04-27T04:38:41.835Z,57.20
2019-04-27T04:42:51.972Z,57.60
2019-04-27T04:47:11.617Z,58.60
2019-04-27T04:51:19.972Z,57.10
2019-04-27T04:55:25.056Z,56.60
2019-04-27T04:59:31.007Z,58.00
2019-04-27T05:03:36.637Z,57.50
2019-04-27T05:07:42.331Z,60.10
2019-04-27T05:11:48.698Z,61.30
2019-04-27T05:15:54.673Z,63.90
2019-04-27T05:20:01.909Z,60.20
2019-04-27T05:24:09.219Z,60.90
2019-04-27T05:28:14.787Z,60.60
2019-04-27T05:32:20.700Z,59.40
2019-04-27T05:36:26.368Z,61.00
2019-04-27T05:40:32.663Z,59.10
2019-04-27T05:45:19.991Z,59.60
2019-04-27T05:49:36.248Z,58.70
2019-04-27T05:53:42.552Z,60.30
2019-04-27T05:57:49.038Z,59.90
2019-04-27T06:01:55.185Z,57.70
2019-04-27T06:06:01.734Z,59.00
2019-04-27T06:10:07.411Z,59.20
2019-04-27T06:14:13.196Z,57.80
2019-04-27T06:18:20.667Z,58.00
2019-04-27T06:22:26.716Z,58.90
2019-04-27T06:26:32.389Z,57.90
2019-04-27T06:30:39.178Z,58.00
2019-04-27T06:34:44.929Z,58.10
2019-04-27T06:38:50.554Z,58.10
2019-04-27T06:42:59.621Z,57.40
2019-04-27T06:47:05.772Z,58.30
2019-04-27T06:51:12.025Z,56.60
2019-04-27T06:55:18.861Z,58.20
2019-04-27T06:59:24.959Z,57.20
2019-04-27T07:03:30.732Z,56.90
2019-04-27T07:07:36.313Z,56.70
2019-04-27T07:11:41.980Z,57.50
2019-04-27T07:15:48.553Z,56.90
2019-04-27T07:19:54.237Z,56.10
2019-04-27T07:23:59.951Z,56.50
2019-04-27T07:28:05.687Z,55.90
2019-04-27T07:32:11.331Z,55.50
2019-04-27T07:36:18.789Z,55.90
2019-04-27T07:40:24.242Z,54.50
2019-04-27T07:44:39.060Z,53.40
2019-04-27T07:48:44.763Z,53.10
2019-04-27T07:52:51.257Z,52.80
2019-04-27T07:56:58.786Z,53.20
2019-04-27T08:01:04.449Z,52.50
2019-04-27T08:05:10.201Z,52.40
2019-04-27T08:09:15.793Z,51.40
2019-04-27T08:13:21.388Z,52.10
2019-04-27T08:17:28.347Z,50.30
2019-04-27T08:21:43.522Z,51.50
2019-04-27T08:25:41.594Z,51.00
2019-04-27T08:30:06.829Z,50.80
2019-04-27T08:34:30.237Z,50.70
2019-04-27T08:38:35.857Z,50.20
2019-04-27T08:42:41.498Z,50.00
2019-04-27T08:46:47.554Z,49.90
2019-04-27T08:50:54.219Z,49.90
2019-04-27T08:54:59.829Z,49.60
2019-04-27T08:59:05.615Z,49.50
2019-04-27T09:03:11.171Z,48.40
2019-04-27T09:07:34.366Z,48.50
2019-04-27T09:12:14.260Z,48.00
2019-04-27T09:16:34.320Z,48.70
2019-04-27T09:20:46.587Z,48.50
2019-04-27T09:24:52.213Z,48.40
2019-04-27T09:28:59.506Z,47.60
2019-04-27T09:33:05.456Z,47.50
2019-04-27T09:37:11.034Z,47.30
2019-04-27T09:41:16.945Z,47.70
2019-04-27T09:45:22.993Z,47.30
2019-04-27T09:49:28.674Z,46.90
2019-04-27T09:53:36.338Z,47.00
2019-04-27T09:57:42.162Z,44.50
2019-04-27T10:01:47.714Z,46.80
2019-04-27T10:05:53.297Z,47.00
2019-04-27T10:09:59.007Z,46.50
2019-04-27T10:14:05.926Z,46.20
2019-04-27T10:18:11.539Z,45.10
2019-04-27T10:22:17.157Z,44.90
2019-04-27T10:26:23.759Z,45.40
2019-04-27T10:30:30.172Z,45.40
2019-04-27T10:34:35.802Z,44.20
2019-04-27T10:38:42.405Z,44.50
2019-04-27T10:42:48.079Z,45.40
2019-04-27T10:46:53.639Z,44.00
2019-04-27T10:50:59.299Z,44.90
2019-04-27T10:55:06.012Z,44.30
2019-04-27T10:59:11.756Z,44.30
2019-04-27T11:03:19.843Z,43.90
2019-04-27T11:07:28.624Z,43.70
2019-04-27T11:11:36.221Z,44.40
2019-04-27T11:15:41.768Z,42.30
2019-04-27T11:19:47.406Z,43.10
2019-04-27T11:23:53.494Z,42.60
2019-04-27T11:28:00.438Z,42.50
2019-04-27T11:32:06.152Z,44.00
2019-04-27T11:36:29.568Z,41.80
2019-04-27T11:40:36.682Z,42.60
2019-04-27T11:44:43.971Z,41.40
2019-04-27T11:48:50.198Z,41.60
2019-04-27T11:52:56.691Z,42.10
2019-04-27T11:57:03.655Z,40.60
2019-04-27T12:01:09.294Z,42.20
2019-04-27T12:05:16.076Z,41.10
2019-04-27T12:09:21.717Z,40.30
2019-04-27T12:13:28.174Z,40.30
2019-04-27T12:17:35.415Z,39.80
2019-04-27T12:21:41.085Z,40.70
2019-04-27T12:25:47.192Z,38.10
2019-04-27T12:30:20.939Z,38.30
2019-04-27T12:34:27.951Z,40.30
2019-04-27T12:38:33.663Z,39.40
2019-04-27T12:42:39.210Z,40.80
2019-04-27T12:46:44.813Z,40.10
2019-04-27T12:50:50.399Z,38.90
2019-04-27T12:55:16.843Z,40.50
2019-04-27T12:59:38.787Z,39.30
2019-04-27T13:03:46.198Z,39.40
2019-04-27T13:07:51.736Z,38.40
2019-04-27T13:11:58.378Z,39.70
2019-04-27T13:16:04.227Z,38.60
2019-04-27T13:20:10.213Z,40.30
2019-04-27T13:24:15.996Z,40.40
2019-04-27T13:28:21.612Z,37.90
2019-04-27T13:32:27.266Z,39.50
2019-04-27T13:36:33.126Z,39.10
2019-04-27T13:40:41.895Z,38.00
2019-04-27T13:44:48.105Z,39.40
2019-04-27T13:49:18.419Z,39.20
2019-04-27T13:53:26.231Z,37.70
2019-04-27T13:57:32.086Z,40.10
2019-04-27T14:01:37.853Z,40.30
2019-04-27T14:05:43.491Z,38.40
2019-04-27T14:09:50.455Z,38.60
2019-04-27T14:13:57.425Z,39.10
2019-04-27T14:18:03.303Z,40.20
2019-04-27T14:22:09.239Z,40.80
2019-04-27T14:26:15.200Z,39.10
2019-04-27T14:30:23.046Z,36.00
2019-04-27T14:34:28.721Z,37.70
2019-04-27T14:38:34.373Z,38.50
2019-04-27T14:42:48.433Z,36.80
2019-04-27T14:46:54.966Z,38.40
2019-04-27T14:51:00.593Z,38.50
2019-04-27T14:55:06.311Z,36.80
2019-04-27T14:59:11.960Z,37.30
2019-04-27T15:03:17.659Z,39.20
2019-04-27T15:07:25.029Z,36.90
2019-04-27T15:11:34.298Z,39.00
2019-04-27T15:15:40.300Z,38.70
2019-04-27T15:19:52.763Z,39.10
2019-04-27T15:24:02.414Z,39.10
2019-04-27T15:28:11.608Z,38.40
2019-04-27T15:32:23.970Z,37.80
2019-04-27T15:36:46.664Z,36.90
2019-04-27T15:41:09.304Z,35.20
2019-04-27T15:45:15.895Z,38.60
2019-04-27T15:49:22.208Z,37.10
2019-04-27T15:53:28.400Z,37.50
2019-04-27T15:57:34.180Z,37.40
2019-04-27T16:01:40.926Z,37.30
2019-04-27T16:05:46.536Z,37.00
2019-04-27T16:09:54.355Z,36.20
2019-04-27T16:14:03.016Z,36.70
2019-04-27T16:18:08.664Z,37.90
2019-04-27T16:22:13.904Z,36.20
2019-04-27T16:26:20.540Z,37.50
2019-04-27T16:30:26.189Z,38.30
2019-04-27T16:34:33.080Z,37.70
2019-04-27T16:38:53.994Z,37.60
2019-04-27T16:42:59.619Z,38.00
2019-04-27T16:47:05.327Z,37.70
2019-04-27T16:51:11.093Z,38.80
2019-04-27T16:55:18.038Z,36.60
2019-04-27T16:59:42.322Z,39.90
2019-04-27T17:03:31.656Z,39.50
2019-04-27T17:07:37.905Z,37.80
2019-04-27T17:11:50.136Z,38.60
2019-04-27T17:16:24.682Z,38.70
2019-04-27T17:20:30.295Z,37.90
2019-04-27T17:24:42.735Z,41.10
2019-04-27T17:28:50.897Z,39.30
2019-04-27T17:33:10.211Z,40.20
2019-04-27T17:37:09.400Z,39.70
2019-04-27T17:41:15.134Z,42.10
2019-04-27T17:45:21.702Z,42.20
2019-04-27T17:49:28.109Z,40.00
2019-04-27T17:53:34.448Z,40.60
2019-04-27T17:57:40.028Z,40.90
2019-04-27T18:01:45.959Z,39.90
2019-04-27T18:05:52.030Z,40.40
2019-04-27T18:09:58.469Z,40.70
2019-04-27T18:14:04.245Z,42.00
2019-04-27T18:18:32.976Z,42.10
2019-04-27T18:22:45.472Z,42.70
2019-04-27T18:27:02.983Z,42.00
2019-04-27T18:31:11.234Z,42.70
2019-04-27T18:35:14.852Z,42.50
2019-04-27T18:39:20.610Z,43.10
2019-04-27T18:43:26.293Z,43.60
2019-04-27T18:47:35.318Z,42.20
2019-04-27T18:52:03.723Z,43.40
2019-04-27T18:56:05.428Z,43.40
2019-04-27T19:00:15.337Z,43.90
2019-04-27T19:04:21.006Z,44.30
2019-04-27T19:08:28.099Z,44.60
2019-04-27T19:12:33.930Z,45.40
2019-04-27T19:16:39.660Z,45.70
2019-04-27T19:20:45.382Z,45.00
2019-04-27T19:24:51.275Z,46.10
2019-04-27T19:29:12.809Z,45.10
2019-04-27T19:33:19.543Z,46.50
2019-04-27T19:37:25.327Z,46.20
2019-04-27T19:41:31.114Z,45.60
2019-04-27T19:45:38.750Z,46.20
2019-04-27T19:49:44.257Z,47.40
2019-04-27T19:53:50.018Z,47.90
2019-04-27T19:57:55.667Z,47.80
2019-04-27T20:02:04.389Z,48.10
2019-04-27T20:06:10.133Z,48.70
2019-04-27T20:10:15.847Z,47.50
2019-04-27T20:14:21.457Z,46.70
2019-04-27T20:18:27.072Z,47.50
2019-04-27T20:22:32.934Z,47.80
2019-04-27T20:26:38.610Z,47.10
2019-04-27T20:30:44.213Z,47.90
2019-04-27T20:34:51.292Z,48.90
2019-04-27T20:38:57.443Z,48.40
2019-04-27T20:43:03.218Z,48.40
2019-04-27T20:47:08.806Z,48.80
2019-04-27T20:51:14.476Z,48.90
2019-04-27T20:55:21.359Z,48.90
2019-04-27T20:59:27.196Z,49.80
2019-04-27T21:03:37.754Z,49.20
2019-04-27T21:07:47.069Z,49.40
2019-04-27T21:11:54.678Z,49.30
2019-04-27T21:16:02.233Z,49.10
2019-04-27T21:20:08.247Z,49.50
2019-04-27T21:24:14.260Z,49.40
2019-04-27T21:28:21.456Z,49.70
2019-04-27T21:32:28.632Z,49.50
2019-04-27T21:36:37.259Z,49.70
2019-04-27T21:40:43.059Z,49.30
2019-04-27T21:44:50.939Z,49.40
2019-04-27T21:48:58.466Z,49.30
2019-04-27T21:53:25.823Z,49.50
2019-04-27T21:57:31.443Z,50.00
2019-04-27T22:01:41.457Z,49.60
2019-04-27T22:05:48.801Z,50.00
2019-04-27T22:09:56.574Z,50.60
2019-04-27T22:14:05.979Z,50.20
2019-04-27T22:18:11.248Z,50.60
2019-04-27T22:22:29.105Z,50.90
2019-04-27T22:26:34.910Z,50.90
2019-04-27T22:30:41.005Z,50.80
2019-04-27T22:34:46.603Z,51.00
2019-04-27T22:38:52.960Z,51.10
2019-04-27T22:43:17.468Z,51.10
2019-04-27T22:47:23.116Z,50.80
2019-04-27T22:51:28.744Z,51.30
2019-04-27T22:55:36.024Z,51.80
2019-04-27T22:59:50.658Z,52.00
2019-04-27T23:03:58.014Z,51.70
2019-04-27T23:08:03.829Z,52.50
2019-04-27T23:12:11.869Z,52.40
2019-04-27T23:16:18.653Z,53.00
2019-04-27T23:20:24.455Z,53.30
2019-04-27T23:24:31.092Z,53.20
2019-04-27T23:28:36.777Z,52.60
2019-04-27T23:32:45.253Z,54.00
2019-04-27T23:36:51.013Z,53.60
2019-04-27T23:40:56.650Z,53.40
2019-04-27T23:45:02.282Z,52.90
2019-04-27T23:49:07.980Z,52.70
2019-04-27T23:53:19.243Z,53.00
2019-04-27T23:57:24.825Z,53.60
